sensor_id;sensor_type;location;lat;lon;timestamp;pressure;altitude;pressure_sealevel;temperature
15360;BMP280;7779;49.596;11.070;2024-03-29T00:01:24;96859.97;;;8.20
15360;BMP280;7779;49.596;11.070;2024-03-29T00:03:50;96865.09;;;8.23
15360;BMP280;7779;49.596;11.070;2024-03-29T00:06:18;96861.13;;;8.28
15360;BMP280;7779;49.596;11.070;2024-03-29T00:08:44;96864.69;;;8.33
15360;BMP280;7779;49.596;11.070;2024-03-29T00:11:10;96862.44;;;8.39
15360;BMP280;7779;49.596;11.070;2024-03-29T00:13:35;96857.59;;;8.44
15360;BMP280;7779;49.596;11.070;2024-03-29T00:16:01;96849.50;;;8.49
15360;BMP280;7779;49.596;11.070;2024-03-29T00:18:27;96839.81;;;8.55
15360;BMP280;7779;49.596;11.070;2024-03-29T00:20:52;96842.53;;;8.61
15360;BMP280;7779;49.596;11.070;2024-03-29T00:23:18;96846.91;;;8.66
15360;BMP280;7779;49.596;11.070;2024-03-29T00:25:44;96846.28;;;8.72
15360;BMP280;7779;49.596;11.070;2024-03-29T00:28:09;96845.69;;;8.77
15360;BMP280;7779;49.596;11.070;2024-03-29T00:30:35;96849.22;;;8.82
15360;BMP280;7779;49.596;11.070;2024-03-29T00:33:01;96849.38;;;8.87
15360;BMP280;7779;49.596;11.070;2024-03-29T00:35:27;96833.63;;;8.88
15360;BMP280;7779;49.596;11.070;2024-03-29T00:37:53;96842.94;;;8.92
15360;BMP280;7779;49.596;11.070;2024-03-29T00:40:18;96848.78;;;8.92
15360;BMP280;7779;49.596;11.070;2024-03-29T00:42:44;96848.84;;;8.94
15360;BMP280;7779;49.596;11.070;2024-03-29T00:45:10;96835.50;;;8.93
15360;BMP280;7779;49.596;11.070;2024-03-29T00:47:35;96835.56;;;8.95
15360;BMP280;7779;49.596;11.070;2024-03-29T00:50:01;96821.44;;;8.95
15360;BMP280;7779;49.596;11.070;2024-03-29T00:52:27;96808.88;;;8.94
15360;BMP280;7779;49.596;11.070;2024-03-29T00:54:52;96808.03;;;8.93
15360;BMP280;7779;49.596;11.070;2024-03-29T00:57:18;96798.94;;;8.95
15360;BMP280;7779;49.596;11.070;2024-03-29T00:59:44;96795.63;;;8.95
15360;BMP280;7779;49.596;11.070;2024-03-29T01:02:10;96788.91;;;8.94
15360;BMP280;7779;49.596;11.070;2024-03-29T01:04:36;96781.47;;;8.95
15360;BMP280;7779;49.596;11.070;2024-03-29T01:07:02;96782.31;;;8.95
15360;BMP280;7779;49.596;11.070;2024-03-29T01:09:27;96777.38;;;8.97
15360;BMP280;7779;49.596;11.070;2024-03-29T01:11:53;96777.44;;;8.98
15360;BMP280;7779;49.596;11.070;2024-03-29T01:14:19;96768.38;;;9.00
15360;BMP280;7779;49.596;11.070;2024-03-29T01:16:45;96780.09;;;9.03
15360;BMP280;7779;49.596;11.070;2024-03-29T01:19:11;96774.38;;;9.05
15360;BMP280;7779;49.596;11.070;2024-03-29T01:21:37;96771.94;;;9.07
15360;BMP280;7779;49.596;11.070;2024-03-29T01:24:03;96776.31;;;9.12
15360;BMP280;7779;49.596;11.070;2024-03-29T01:26:29;96782.31;;;9.17
15360;BMP280;7779;49.596;11.070;2024-03-29T01:28:55;96785.06;;;9.23
15360;BMP280;7779;49.596;11.070;2024-03-29T01:31:23;96780.25;;;9.29
15360;BMP280;7779;49.596;11.070;2024-03-29T01:33:50;96767.19;;;9.36
15360;BMP280;7779;49.596;11.070;2024-03-29T01:36:15;96769.91;;;9.42
15360;BMP280;7779;49.596;11.070;2024-03-29T01:38:41;96760.94;;;9.47
15360;BMP280;7779;49.596;11.070;2024-03-29T01:41:07;96764.47;;;9.52
15360;BMP280;7779;49.596;11.070;2024-03-29T01:43:33;96750.44;;;9.57
15360;BMP280;7779;49.596;11.070;2024-03-29T01:45:59;96724.78;;;9.61
15360;BMP280;7779;49.596;11.070;2024-03-29T01:48:27;96727.41;;;9.65
15360;BMP280;7779;49.596;11.070;2024-03-29T01:50:56;96750.06;;;9.70
15360;BMP280;7779;49.596;11.070;2024-03-29T01:53:23;96761.84;;;9.72
15360;BMP280;7779;49.596;11.070;2024-03-29T01:55:50;96766.13;;;9.76
15360;BMP280;7779;49.596;11.070;2024-03-29T01:58:18;96749.59;;;9.79
15360;BMP280;7779;49.596;11.070;2024-03-29T02:00:52;96755.50;;;9.81
15360;BMP280;7779;49.596;11.070;2024-03-29T02:03:20;96750.53;;;9.83
15360;BMP280;7779;49.596;11.070;2024-03-29T02:05:50;96753.16;;;9.86
15360;BMP280;7779;49.596;11.070;2024-03-29T02:08:16;96749.06;;;9.88
15360;BMP280;7779;49.596;11.070;2024-03-29T02:10:45;96741.56;;;9.88
15360;BMP280;7779;49.596;11.070;2024-03-29T02:13:12;96737.38;;;9.88
15360;BMP280;7779;49.596;11.070;2024-03-29T02:15:40;96735.03;;;9.91
15360;BMP280;7779;49.596;11.070;2024-03-29T02:18:07;96734.28;;;9.94
15360;BMP280;7779;49.596;11.070;2024-03-29T02:20:34;96729.31;;;9.95
15360;BMP280;7779;49.596;11.070;2024-03-29T02:23:07;96731.13;;;9.99
15360;BMP280;7779;49.596;11.070;2024-03-29T02:25:35;96736.25;;;10.02
15360;BMP280;7779;49.596;11.070;2024-03-29T02:28:02;96732.16;;;10.06
15360;BMP280;7779;49.596;11.070;2024-03-29T02:30:31;96732.28;;;10.09
15360;BMP280;7779;49.596;11.070;2024-03-29T02:32:59;96733.28;;;10.13
15360;BMP280;7779;49.596;11.070;2024-03-29T02:35:25;96730.88;;;10.16
15360;BMP280;7779;49.596;11.070;2024-03-29T02:37:52;96725.13;;;10.19
15360;BMP280;7779;49.596;11.070;2024-03-29T02:40:19;96731.91;;;10.23
15360;BMP280;7779;49.596;11.070;2024-03-29T02:42:47;96718.63;;;10.25
15360;BMP280;7779;49.596;11.070;2024-03-29T02:45:12;96706.28;;;10.30
15360;BMP280;7779;49.596;11.070;2024-03-29T02:47:38;96707.16;;;10.32
15360;BMP280;7779;49.596;11.070;2024-03-29T02:50:05;96710.56;;;10.34
15360;BMP280;7779;49.596;11.070;2024-03-29T02:52:31;96703.94;;;10.36
15360;BMP280;7779;49.596;11.070;2024-03-29T02:54:57;96703.22;;;10.38
15360;BMP280;7779;49.596;11.070;2024-03-29T02:57:23;96697.44;;;10.41
15360;BMP280;7779;49.596;11.070;2024-03-29T02:59:48;96703.34;;;10.43
15360;BMP280;7779;49.596;11.070;2024-03-29T03:02:14;96699.22;;;10.45
15360;BMP280;7779;49.596;11.070;2024-03-29T03:04:39;96701.84;;;10.48
15360;BMP280;7779;49.596;11.070;2024-03-29T03:07:05;96699.41;;;10.51
15360;BMP280;7779;49.596;11.070;2024-03-29T03:09:49;96691.09;;;10.52
15360;BMP280;7779;49.596;11.070;2024-03-29T03:12:34;96695.31;;;10.52
15360;BMP280;7779;49.596;11.070;2024-03-29T03:14:59;96687.81;;;10.52
15360;BMP280;7779;49.596;11.070;2024-03-29T03:17:27;96693.72;;;10.56
15360;BMP280;7779;49.596;11.070;2024-03-29T03:19:53;96690.44;;;10.57
15360;BMP280;7779;49.596;11.070;2024-03-29T03:22:19;96692.22;;;10.61
15360;BMP280;7779;49.596;11.070;2024-03-29T03:24:45;96688.16;;;10.64
15360;BMP280;7779;49.596;11.070;2024-03-29T03:27:11;96698.28;;;10.67
15360;BMP280;7779;49.596;11.070;2024-03-29T03:29:36;96689.94;;;10.68
15360;BMP280;7779;49.596;11.070;2024-03-29T03:32:03;96691.75;;;10.72
15360;BMP280;7779;49.596;11.070;2024-03-29T03:34:29;96678.50;;;10.76
15360;BMP280;7779;49.596;11.070;2024-03-29T03:36:55;96685.22;;;10.77
15360;BMP280;7779;49.596;11.070;2024-03-29T03:39:21;96692.00;;;10.81
15360;BMP280;7779;49.596;11.070;2024-03-29T03:41:47;96690.41;;;10.83
15360;BMP280;7779;49.596;11.070;2024-03-29T03:44:13;96700.50;;;10.86
15360;BMP280;7779;49.596;11.070;2024-03-29T03:46:39;96688.03;;;10.88
15360;BMP280;7779;49.596;11.070;2024-03-29T03:49:04;96696.44;;;10.90
15360;BMP280;7779;49.596;11.070;2024-03-29T03:51:30;96696.53;;;10.92
15360;BMP280;7779;49.596;11.070;2024-03-29T03:53:56;96698.25;;;10.95
15360;BMP280;7779;49.596;11.070;2024-03-29T03:56:22;96694.97;;;10.96
15360;BMP280;7779;49.596;11.070;2024-03-29T03:58:48;96705.88;;;10.98
15360;BMP280;7779;49.596;11.070;2024-03-29T04:01:13;96706.78;;;11.00
15360;BMP280;7779;49.596;11.070;2024-03-29T04:03:39;96695.13;;;11.02
15360;BMP280;7779;49.596;11.070;2024-03-29T04:06:06;96706.03;;;11.04
15360;BMP280;7779;49.596;11.070;2024-03-29T04:08:32;96700.25;;;11.06
15360;BMP280;7779;49.596;11.070;2024-03-29T04:11:04;96703.69;;;11.08
15360;BMP280;7779;49.596;11.070;2024-03-29T04:13:30;96705.41;;;11.11
15360;BMP280;7779;49.596;11.070;2024-03-29T04:16:02;96700.44;;;11.12
15360;BMP280;7779;49.596;11.070;2024-03-29T04:18:28;96698.78;;;11.13
15360;BMP280;7779;49.596;11.070;2024-03-29T04:21:02;96688.81;;;11.14
15360;BMP280;7779;49.596;11.070;2024-03-29T04:23:28;96703.00;;;11.14
15360;BMP280;7779;49.596;11.070;2024-03-29T04:25:58;96703.91;;;11.16
15360;BMP280;7779;49.596;11.070;2024-03-29T04:28:25;96701.41;;;11.17
15360;BMP280;7779;49.596;11.070;2024-03-29T04:33:22;96709.06;;;11.22
15360;BMP280;7779;49.596;11.070;2024-03-29T04:35:57;96716.69;;;11.25
15360;BMP280;7779;49.596;11.070;2024-03-29T04:38:23;96689.19;;;11.28
15360;BMP280;7779;49.596;11.070;2024-03-29T04:40:51;96693.38;;;11.29
15360;BMP280;7779;49.596;11.070;2024-03-29T04:43:18;96720.13;;;11.29
15360;BMP280;7779;49.596;11.070;2024-03-29T04:45:45;96716.84;;;11.30
15360;BMP280;7779;49.596;11.070;2024-03-29T04:48:12;96722.75;;;11.32
15360;BMP280;7779;49.596;11.070;2024-03-29T04:50:38;96736.22;;;11.36
15360;BMP280;7779;49.596;11.070;2024-03-29T04:53:04;96735.44;;;11.38
15360;BMP280;7779;49.596;11.070;2024-03-29T04:55:30;96743.84;;;11.40
15360;BMP280;7779;49.596;11.070;2024-03-29T04:57:56;96743.06;;;11.41
15360;BMP280;7779;49.596;11.070;2024-03-29T05:00:21;96742.22;;;11.42
15360;BMP280;7779;49.596;11.070;2024-03-29T05:02:47;96737.34;;;11.45
15360;BMP280;7779;49.596;11.070;2024-03-29T05:05:13;96736.53;;;11.46
15360;BMP280;7779;49.596;11.070;2024-03-29T05:07:39;96747.41;;;11.47
15360;BMP280;7779;49.596;11.070;2024-03-29T05:10:05;96752.47;;;11.48
15360;BMP280;7779;49.596;11.070;2024-03-29T05:12:36;96748.34;;;11.50
15360;BMP280;7779;49.596;11.070;2024-03-29T05:15:02;96767.59;;;11.51
15360;BMP280;7779;49.596;11.070;2024-03-29T05:17:28;96771.81;;;11.52
15360;BMP280;7779;49.596;11.070;2024-03-29T05:19:54;96791.06;;;11.53
15360;BMP280;7779;49.596;11.070;2024-03-29T05:22:20;96779.44;;;11.55
15360;BMP280;7779;49.596;11.070;2024-03-29T05:24:46;96777.81;;;11.57
15360;BMP280;7779;49.596;11.070;2024-03-29T05:27:12;96784.50;;;11.58
15360;BMP280;7779;49.596;11.070;2024-03-29T05:29:38;96781.16;;;11.58
15360;BMP280;7779;49.596;11.070;2024-03-29T05:32:05;96809.56;;;11.58
15360;BMP280;7779;49.596;11.070;2024-03-29T05:34:31;96792.84;;;11.57
15360;BMP280;7779;49.596;11.070;2024-03-29T05:36:57;96796.31;;;11.61
15360;BMP280;7779;49.596;11.070;2024-03-29T05:39:22;96798.81;;;11.62
15360;BMP280;7779;49.596;11.070;2024-03-29T05:41:48;96798.88;;;11.64
15360;BMP280;7779;49.596;11.070;2024-03-29T05:44:14;96764.63;;;11.64
15360;BMP280;7779;49.596;11.070;2024-03-29T05:46:39;96812.28;;;11.66
15360;BMP280;7779;49.596;11.070;2024-03-29T05:49:06;96780.63;;;11.69
15360;BMP280;7779;49.596;11.070;2024-03-29T05:51:32;96750.56;;;11.70
15360;BMP280;7779;49.596;11.070;2024-03-29T05:54:00;96750.66;;;11.73
15360;BMP280;7779;49.596;11.070;2024-03-29T05:56:26;96749.88;;;11.76
15360;BMP280;7779;49.596;11.070;2024-03-29T05:58:52;96754.22;;;11.81
15360;BMP280;7779;49.596;11.070;2024-03-29T06:01:17;96755.16;;;11.85
15360;BMP280;7779;49.596;11.070;2024-03-29T06:03:43;96778.72;;;11.90
15360;BMP280;7779;49.596;11.070;2024-03-29T06:06:09;96767.13;;;11.95
15360;BMP280;7779;49.596;11.070;2024-03-29T06:08:43;96746.31;;;11.99
15360;BMP280;7779;49.596;11.070;2024-03-29T06:11:09;96784.03;;;12.02
15360;BMP280;7779;49.596;11.070;2024-03-29T06:13:34;96785.00;;;12.07
15360;BMP280;7779;49.596;11.070;2024-03-29T06:16:28;96782.63;;;12.11
15360;BMP280;7779;49.596;11.070;2024-03-29T06:19:13;96774.31;;;12.13
15360;BMP280;7779;49.596;11.070;2024-03-29T06:21:38;96780.25;;;12.17
15360;BMP280;7779;49.596;11.070;2024-03-29T06:24:10;96789.59;;;12.22
15360;BMP280;7779;49.596;11.070;2024-03-29T06:26:38;96765.44;;;12.26
15360;BMP280;7779;49.596;11.070;2024-03-29T06:29:04;96771.38;;;12.29
15360;BMP280;7779;49.596;11.070;2024-03-29T06:31:30;96761.47;;;12.35
15360;BMP280;7779;49.596;11.070;2024-03-29T06:33:59;96790.88;;;12.39
15360;BMP280;7779;49.596;11.070;2024-03-29T06:36:25;96782.59;;;12.43
15360;BMP280;7779;49.596;11.070;2024-03-29T06:38:52;96787.03;;;12.53
15360;BMP280;7779;49.596;11.070;2024-03-29T06:41:17;96783.84;;;12.60
15360;BMP280;7779;49.596;11.070;2024-03-29T06:43:44;96782.38;;;12.68
15360;BMP280;7779;49.596;11.070;2024-03-29T06:46:11;96770.84;;;12.76
15360;BMP280;7779;49.596;11.070;2024-03-29T06:48:37;96758.53;;;12.85
15360;BMP280;7779;49.596;11.070;2024-03-29T06:51:03;96750.31;;;12.93
15360;BMP280;7779;49.596;11.070;2024-03-29T06:53:30;96758.81;;;12.98
15360;BMP280;7779;49.596;11.070;2024-03-29T06:55:56;96734.59;;;13.01
15360;BMP280;7779;49.596;11.070;2024-03-29T06:58:23;96741.34;;;13.04
15360;BMP280;7779;49.596;11.070;2024-03-29T07:00:49;96745.63;;;13.06
15360;BMP280;7779;49.596;11.070;2024-03-29T07:03:15;96738.13;;;13.09
15360;BMP280;7779;49.596;11.070;2024-03-29T07:05:42;96734.81;;;13.10
15360;BMP280;7779;49.596;11.070;2024-03-29T07:08:08;96730.66;;;13.12
15360;BMP280;7779;49.596;11.070;2024-03-29T07:10:33;96723.19;;;13.17
15360;BMP280;7779;49.596;11.070;2024-03-29T07:12:59;96724.06;;;13.19
15360;BMP280;7779;49.596;11.070;2024-03-29T07:15:25;96726.66;;;13.22
15360;BMP280;7779;49.596;11.070;2024-03-29T07:17:51;96716.72;;;13.26
15360;BMP280;7779;49.596;11.070;2024-03-29T07:20:18;96708.41;;;13.30
15360;BMP280;7779;49.596;11.070;2024-03-29T07:22:43;96709.34;;;13.35
15360;BMP280;7779;49.596;11.070;2024-03-29T07:25:10;96710.25;;;13.40
15360;BMP280;7779;49.596;11.070;2024-03-29T07:27:36;96705.41;;;13.49
15360;BMP280;7779;49.596;11.070;2024-03-29T07:30:03;96693.84;;;13.57
15360;BMP280;7779;49.596;11.070;2024-03-29T07:32:30;96713.31;;;13.66
15360;BMP280;7779;49.596;11.070;2024-03-29T07:34:56;96711.88;;;13.79
15360;BMP280;7779;49.596;11.070;2024-03-29T07:37:24;96715.50;;;13.96
15360;BMP280;7779;49.596;11.070;2024-03-29T07:39:50;96722.66;;;14.16
15360;BMP280;7779;49.596;11.070;2024-03-29T07:42:16;96717.94;;;14.37
15360;BMP280;7779;49.596;11.070;2024-03-29T07:44:42;96715.75;;;14.56
15360;BMP280;7779;49.596;11.070;2024-03-29T07:47:08;96715.16;;;14.72
15360;BMP280;7779;49.596;11.070;2024-03-29T07:49:34;96690.16;;;14.86
15360;BMP280;7779;49.596;11.070;2024-03-29T07:52:02;96713.00;;;14.98
15360;BMP280;7779;49.596;11.070;2024-03-29T07:54:34;96725.75;;;15.09
15360;BMP280;7779;49.596;11.070;2024-03-29T07:56:59;96706.56;;;15.18
15360;BMP280;7779;49.596;11.070;2024-03-29T07:59:25;96710.09;;;15.27
15360;BMP280;7779;49.596;11.070;2024-03-29T08:01:51;96734.56;;;15.37
15360;BMP280;7779;49.596;11.070;2024-03-29T08:04:18;96729.69;;;15.49
15360;BMP280;7779;49.596;11.070;2024-03-29T08:06:43;96721.47;;;15.63
15360;BMP280;7779;49.596;11.070;2024-03-29T08:09:09;96710.69;;;15.78
15360;BMP280;7779;49.596;11.070;2024-03-29T08:11:35;96704.09;;;15.95
15360;BMP280;7779;49.596;11.070;2024-03-29T08:14:01;96706.81;;;16.14
15360;BMP280;7779;49.596;11.070;2024-03-29T08:16:27;96698.56;;;16.28
15360;BMP280;7779;49.596;11.070;2024-03-29T08:18:53;96698.69;;;16.46
15360;BMP280;7779;49.596;11.070;2024-03-29T08:21:19;96694.63;;;16.63
15360;BMP280;7779;49.596;11.070;2024-03-29T08:23:44;96685.47;;;16.80
15360;BMP280;7779;49.596;11.070;2024-03-29T08:26:12;96692.31;;;16.95
15360;BMP280;7779;49.596;11.070;2024-03-29T08:28:38;96695.75;;;17.11
15360;BMP280;7779;49.596;11.070;2024-03-29T08:31:06;96693.34;;;17.27
15360;BMP280;7779;49.596;11.070;2024-03-29T08:33:35;96679.03;;;17.39
15360;BMP280;7779;49.596;11.070;2024-03-29T08:36:06;96664.72;;;17.49
15360;BMP280;7779;49.596;11.070;2024-03-29T08:38:34;96674.06;;;17.59
15360;BMP280;7779;49.596;11.070;2024-03-29T08:41:01;96663.94;;;17.63
15360;BMP280;7779;49.596;11.070;2024-03-29T08:43:26;96654.66;;;17.66
15360;BMP280;7779;49.596;11.070;2024-03-29T08:45:52;96656.34;;;17.72
15360;BMP280;7779;49.596;11.070;2024-03-29T08:48:18;96656.38;;;17.73
15360;BMP280;7779;49.596;11.070;2024-03-29T08:50:44;96659.75;;;17.72
15360;BMP280;7779;49.596;11.070;2024-03-29T08:53:10;96653.81;;;17.72
15360;BMP280;7779;49.596;11.070;2024-03-29T08:55:36;96658.91;;;17.72
15360;BMP280;7779;49.596;11.070;2024-03-29T08:58:06;96666.50;;;17.70
15360;BMP280;7779;49.596;11.070;2024-03-29T09:00:32;96669.03;;;17.66
15360;BMP280;7779;49.596;11.070;2024-03-29T09:02:58;96679.97;;;17.60
15360;BMP280;7779;49.596;11.070;2024-03-29T09:05:25;96676.59;;;17.53
15360;BMP280;7779;49.596;11.070;2024-03-29T09:07:53;96701.88;;;17.44
15360;BMP280;7779;49.596;11.070;2024-03-29T09:10:19;96715.31;;;17.34
15360;BMP280;7779;49.596;11.070;2024-03-29T09:12:45;96718.63;;;17.21
15360;BMP280;7779;49.596;11.070;2024-03-29T09:15:10;96740.44;;;17.10
15360;BMP280;7779;49.596;11.070;2024-03-29T09:17:40;96750.47;;;16.95
15360;BMP280;7779;49.596;11.070;2024-03-29T09:20:07;96760.50;;;16.83
15360;BMP280;7779;49.596;11.070;2024-03-29T09:22:33;96762.06;;;16.67
15360;BMP280;7779;49.596;11.070;2024-03-29T09:24:59;96768.69;;;16.50
15360;BMP280;7779;49.596;11.070;2024-03-29T09:27:27;96776.94;;;16.34
15360;BMP280;7779;49.596;11.070;2024-03-29T09:29:54;96787.72;;;16.18
15360;BMP280;7779;49.596;11.070;2024-03-29T09:32:20;96803.50;;;16.00
15360;BMP280;7779;49.596;11.070;2024-03-29T09:34:47;96807.47;;;15.81
15360;BMP280;7779;49.596;11.070;2024-03-29T09:37:13;96808.94;;;15.64
15360;BMP280;7779;49.596;11.070;2024-03-29T09:39:38;96813.84;;;15.53
15360;BMP280;7779;49.596;11.070;2024-03-29T09:42:06;96825.47;;;15.40
15360;BMP280;7779;49.596;11.070;2024-03-29T09:44:35;96839.53;;;15.26
15360;BMP280;7779;49.596;11.070;2024-03-29T09:47:05;96839.41;;;15.18
15360;BMP280;7779;49.596;11.070;2024-03-29T09:49:32;96836.72;;;15.09
15360;BMP280;7779;49.596;11.070;2024-03-29T09:52:01;96850.06;;;15.02
15360;BMP280;7779;49.596;11.070;2024-03-29T09:54:30;96849.16;;;14.97
15360;BMP280;7779;49.596;11.070;2024-03-29T09:56:57;96847.38;;;14.93
15360;BMP280;7779;49.596;11.070;2024-03-29T09:59:23;96853.28;;;14.92
15360;BMP280;7779;49.596;11.070;2024-03-29T10:01:51;96849.03;;;14.91
15360;BMP280;7779;49.596;11.070;2024-03-29T10:04:23;96842.31;;;14.90
15360;BMP280;7779;49.596;11.070;2024-03-29T10:06:51;96851.66;;;14.95
15360;BMP280;7779;49.596;11.070;2024-03-29T10:09:21;96858.50;;;15.02
15360;BMP280;7779;49.596;11.070;2024-03-29T10:11:48;96870.38;;;15.11
15360;BMP280;7779;49.596;11.070;2024-03-29T10:14:14;96867.16;;;15.18
15360;BMP280;7779;49.596;11.070;2024-03-29T10:16:40;96863.94;;;15.26
15360;BMP280;7779;49.596;11.070;2024-03-29T10:19:07;96861.53;;;15.36
15360;BMP280;7779;49.596;11.070;2024-03-29T10:21:34;96870.13;;;15.46
15360;BMP280;7779;49.596;11.070;2024-03-29T10:24:14;96848.34;;;15.54
15360;BMP280;7779;49.596;11.070;2024-03-29T10:26:44;96829.06;;;15.59
15360;BMP280;7779;49.596;11.070;2024-03-29T10:29:10;96834.16;;;15.63
15360;BMP280;7779;49.596;11.070;2024-03-29T10:31:36;96822.44;;;15.66
15360;BMP280;7779;49.596;11.070;2024-03-29T10:34:06;96809.03;;;15.72
15360;BMP280;7779;49.596;11.070;2024-03-29T10:36:32;96793.94;;;15.75
15360;BMP280;7779;49.596;11.070;2024-03-29T10:39:09;96795.66;;;15.77
15360;BMP280;7779;49.596;11.070;2024-03-29T10:41:42;96779.69;;;15.80
15360;BMP280;7779;49.596;11.070;2024-03-29T10:44:10;96771.34;;;15.87
15360;BMP280;7779;49.596;11.070;2024-03-29T10:46:40;96788.25;;;15.94
15360;BMP280;7779;49.596;11.070;2024-03-29T10:49:15;96784.13;;;15.99
15360;BMP280;7779;49.596;11.070;2024-03-29T10:51:43;96779.13;;;16.04
15360;BMP280;7779;49.596;11.070;2024-03-29T10:54:10;96776.69;;;16.10
15360;BMP280;7779;49.596;11.070;2024-03-29T10:56:37;96773.34;;;16.14
15360;BMP280;7779;49.596;11.070;2024-03-29T10:59:28;96770.81;;;16.17
15360;BMP280;7779;49.596;11.070;2024-03-29T11:02:00;96748.09;;;16.14
15360;BMP280;7779;49.596;11.070;2024-03-29T11:04:36;96732.94;;;16.14
15360;BMP280;7779;49.596;11.070;2024-03-29T11:07:15;96727.84;;;16.11
15360;BMP280;7779;49.596;11.070;2024-03-29T11:09:44;96750.56;;;16.08
15360;BMP280;7779;49.596;11.070;2024-03-29T11:12:13;96741.28;;;16.07
15360;BMP280;7779;49.596;11.070;2024-03-29T11:14:46;96755.56;;;16.04
15360;BMP280;7779;49.596;11.070;2024-03-29T11:17:13;96751.31;;;16.00
15360;BMP280;7779;49.596;11.070;2024-03-29T11:19:40;96757.16;;;15.99
15360;BMP280;7779;49.596;11.070;2024-03-29T11:22:07;96763.06;;;15.98
15360;BMP280;7779;49.596;11.070;2024-03-29T11:24:32;96742.84;;;15.97
15360;BMP280;7779;49.596;11.070;2024-03-29T11:27:10;96730.25;;;15.98
15360;BMP280;7779;49.596;11.070;2024-03-29T11:29:36;96726.03;;;15.99
15360;BMP280;7779;49.596;11.070;2024-03-29T11:32:07;96716.78;;;16.01
15360;BMP280;7779;49.596;11.070;2024-03-29T11:34:33;96717.63;;;16.02
15360;BMP280;7779;49.596;11.070;2024-03-29T11:37:12;96715.16;;;16.05
15360;BMP280;7779;49.596;11.070;2024-03-29T11:39:47;96709.25;;;16.06
15360;BMP280;7779;49.596;11.070;2024-03-29T11:42:13;96706.78;;;16.09
15360;BMP280;7779;49.596;11.070;2024-03-29T11:44:39;96716.09;;;16.15
15360;BMP280;7779;49.596;11.070;2024-03-29T11:47:07;96730.50;;;16.22
15360;BMP280;7779;49.596;11.070;2024-03-29T11:49:34;96730.53;;;16.26
15360;BMP280;7779;49.596;11.070;2024-03-29T11:52:04;96738.19;;;16.32
15360;BMP280;7779;49.596;11.070;2024-03-29T11:54:39;96744.97;;;16.38
15360;BMP280;7779;49.596;11.070;2024-03-29T11:57:05;96747.53;;;16.42
15360;BMP280;7779;49.596;11.070;2024-03-29T11:59:30;96755.16;;;16.48
15360;BMP280;7779;49.596;11.070;2024-03-29T12:01:57;96736.69;;;16.55
15360;BMP280;7779;49.596;11.070;2024-03-29T12:04:22;96731.69;;;16.64
15360;BMP280;7779;49.596;11.070;2024-03-29T12:06:49;96735.97;;;16.72
15360;BMP280;7779;49.596;11.070;2024-03-29T12:09:15;96721.72;;;16.81
15360;BMP280;7779;49.596;11.070;2024-03-29T12:11:43;96724.34;;;16.93
15360;BMP280;7779;49.596;11.070;2024-03-29T12:14:15;96726.09;;;17.05
15360;BMP280;7779;49.596;11.070;2024-03-29T12:16:45;96711.78;;;17.14
15360;BMP280;7779;49.596;11.070;2024-03-29T12:19:25;96717.78;;;17.22
15360;BMP280;7779;49.596;11.070;2024-03-29T12:21:53;96711.91;;;17.26
15360;BMP280;7779;49.596;11.070;2024-03-29T12:24:19;96699.25;;;17.27
15360;BMP280;7779;49.596;11.070;2024-03-29T12:26:48;96690.00;;;17.31
15360;BMP280;7779;49.596;11.070;2024-03-29T12:29:15;96685.81;;;17.34
15360;BMP280;7779;49.596;11.070;2024-03-29T12:31:41;96687.50;;;17.41
15360;BMP280;7779;49.596;11.070;2024-03-29T12:34:07;96688.41;;;17.51
15360;BMP280;7779;49.596;11.070;2024-03-29T12:36:33;96681.69;;;17.61
15360;BMP280;7779;49.596;11.070;2024-03-29T12:38:59;96679.16;;;17.73
15360;BMP280;7779;49.596;11.070;2024-03-29T12:41:31;96671.59;;;17.85
15360;BMP280;7779;49.596;11.070;2024-03-29T12:43:58;96672.47;;;17.98
15360;BMP280;7779;49.596;11.070;2024-03-29T12:46:25;96661.53;;;18.12
15360;BMP280;7779;49.596;11.070;2024-03-29T12:49:00;96663.22;;;18.28
15360;BMP280;7779;49.596;11.070;2024-03-29T12:51:29;96656.47;;;18.41
15360;BMP280;7779;49.596;11.070;2024-03-29T12:53:56;96653.94;;;18.53
15360;BMP280;7779;49.596;11.070;2024-03-29T12:56:30;96642.91;;;18.63
15360;BMP280;7779;49.596;11.070;2024-03-29T12:58:55;96648.84;;;18.71
15360;BMP280;7779;49.596;11.070;2024-03-29T13:01:21;96639.50;;;18.79
15360;BMP280;7779;49.596;11.070;2024-03-29T13:03:48;96634.41;;;18.88
15360;BMP280;7779;49.596;11.070;2024-03-29T13:06:13;96635.28;;;18.99
15360;BMP280;7779;49.596;11.070;2024-03-29T13:08:39;96626.75;;;19.09
15360;BMP280;7779;49.596;11.070;2024-03-29T13:11:05;96624.19;;;19.20
15360;BMP280;7779;49.596;11.070;2024-03-29T13:13:31;96627.53;;;19.31
15360;BMP280;7779;49.596;11.070;2024-03-29T13:15:57;96624.94;;;19.39
15360;BMP280;7779;49.596;11.070;2024-03-29T13:18:22;96639.31;;;19.46
15360;BMP280;7779;49.596;11.070;2024-03-29T13:20:48;96643.50;;;19.54
15360;BMP280;7779;49.596;11.070;2024-03-29T13:23:14;96636.69;;;19.60
15360;BMP280;7779;49.596;11.070;2024-03-29T13:25:40;96640.88;;;19.66
15360;BMP280;7779;49.596;11.070;2024-03-29T13:28:06;96631.56;;;19.69
15360;BMP280;7779;49.596;11.070;2024-03-29T13:30:33;96639.16;;;19.72
15360;BMP280;7779;49.596;11.070;2024-03-29T13:32:58;96639.16;;;19.74
15360;BMP280;7779;49.596;11.070;2024-03-29T13:35:24;96639.13;;;19.77
15360;BMP280;7779;49.596;11.070;2024-03-29T13:37:51;96643.38;;;19.82
15360;BMP280;7779;49.596;11.070;2024-03-29T13:40:22;96638.22;;;19.90
15360;BMP280;7779;49.596;11.070;2024-03-29T13:42:48;96637.34;;;19.99
15360;BMP280;7779;49.596;11.070;2024-03-29T13:45:14;96633.84;;;20.09
15360;BMP280;7779;49.596;11.070;2024-03-29T13:47:44;96631.22;;;20.23
15360;BMP280;7779;49.596;11.070;2024-03-29T13:50:10;96620.09;;;20.34
15360;BMP280;7779;49.596;11.070;2024-03-29T13:52:37;96627.59;;;20.47
15360;BMP280;7779;49.596;11.070;2024-03-29T13:55:04;96630.03;;;20.61
15360;BMP280;7779;49.596;11.070;2024-03-29T13:57:30;96621.47;;;20.71
15360;BMP280;7779;49.596;11.070;2024-03-29T13:59:57;96619.72;;;20.80
15360;BMP280;7779;49.596;11.070;2024-03-29T14:02:24;96621.28;;;20.90
15360;BMP280;7779;49.596;11.070;2024-03-29T14:04:52;96622.91;;;20.98
15360;BMP280;7779;49.596;11.070;2024-03-29T14:07:18;96616.88;;;21.05
15360;BMP280;7779;49.596;11.070;2024-03-29T14:09:47;96616.81;;;21.11
15360;BMP280;7779;49.596;11.070;2024-03-29T14:12:13;96606.59;;;21.13
15360;BMP280;7779;49.596;11.070;2024-03-29T14:14:40;96614.28;;;21.08